createdAt,value
2022-12-11T00:00:46.753Z,52.83
2022-12-11T00:03:16.183Z,48.50
2022-12-11T00:05:44.145Z,50.90
2022-12-11T00:08:11.806Z,51.78
2022-12-11T00:10:38.638Z,51.17
2022-12-11T00:13:05.588Z,49.15
2022-12-11T00:15:32.222Z,48.05
2022-12-11T00:17:58.918Z,51.15
2022-12-11T00:20:25.557Z,50.90
2022-12-11T00:22:52.134Z,55.38
2022-12-11T00:25:18.761Z,54.30
2022-12-11T00:27:47.103Z,52.63
2022-12-11T00:30:14.672Z,52.85
2022-12-11T00:32:41.542Z,52.63
2022-12-11T00:35:08.855Z,51.15
2022-12-11T00:37:35.912Z,50.30
2022-12-11T00:40:02.807Z,52.05
2022-12-11T00:42:29.525Z,48.20
2022-12-11T00:44:56.309Z,49.28
2022-12-11T00:47:22.986Z,50.58
2022-12-11T00:49:50.251Z,49.58
2022-12-11T00:52:17.844Z,50.13
2022-12-11T00:54:45.010Z,49.20
2022-12-11T00:57:11.713Z,46.22
2022-12-11T00:59:38.517Z,50.17
2022-12-11T01:02:05.109Z,48.22
2022-12-11T01:04:31.706Z,50.20
2022-12-11T01:06:58.316Z,49.60
2022-12-11T01:09:43.502Z,48.25
2022-12-11T01:14:36.633Z,46.15
2022-12-11T01:17:03.534Z,46.60
2022-12-11T01:19:30.558Z,47.85
2022-12-11T01:21:57.184Z,48.35
2022-12-11T01:24:23.894Z,46.83
2022-12-11T01:26:50.506Z,47.15
2022-12-11T01:29:17.604Z,49.10
2022-12-11T01:31:44.229Z,49.10
2022-12-11T01:34:10.861Z,49.75
2022-12-11T01:36:37.510Z,47.90
2022-12-11T01:39:04.313Z,48.00
2022-12-11T01:41:31.058Z,47.28
2022-12-11T01:44:03.431Z,48.10
2022-12-11T01:46:32.486Z,44.03
2022-12-11T01:49:00.880Z,46.33
2022-12-11T01:51:33.785Z,48.13
2022-12-11T01:54:10.210Z,45.83
2022-12-11T01:57:37.088Z,46.97
2022-12-11T02:00:05.299Z,45.92
2022-12-11T02:02:39.961Z,47.20
2022-12-11T02:05:08.550Z,49.50
2022-12-11T02:07:48.177Z,48.55
2022-12-11T02:10:15.304Z,46.80
2022-12-11T02:12:49.540Z,46.08
2022-12-11T02:15:31.151Z,46.08
2022-12-11T02:18:18.959Z,48.58
2022-12-11T02:20:54.084Z,47.20
2022-12-11T02:23:33.113Z,47.08
2022-12-11T02:26:12.185Z,47.38
2022-12-11T02:28:44.290Z,48.17
2022-12-11T02:31:17.733Z,47.22
2022-12-11T02:34:07.399Z,51.20
2022-12-11T02:36:40.026Z,50.65
2022-12-11T02:39:33.463Z,51.35
2022-12-11T02:42:01.122Z,53.83
2022-12-11T02:44:30.738Z,50.92
2022-12-11T02:46:58.516Z,52.22
2022-12-11T02:49:27.689Z,51.53
2022-12-11T02:51:55.896Z,54.45
2022-12-11T02:54:29.026Z,54.08
2022-12-11T02:57:11.688Z,51.13
2022-12-11T02:59:47.213Z,52.47
2022-12-11T03:02:16.780Z,54.80
2022-12-11T03:04:44.482Z,55.47
2022-12-11T03:07:19.201Z,55.10
2022-12-11T03:09:47.542Z,53.55
2022-12-11T03:12:19.067Z,51.00
2022-12-11T03:14:46.496Z,52.60
2022-12-11T03:17:41.910Z,56.03
2022-12-11T03:20:17.449Z,53.97
2022-12-11T03:22:51.154Z,53.67
2022-12-11T03:25:23.101Z,53.03
2022-12-11T03:27:56.358Z,50.05
2022-12-11T03:30:25.456Z,55.30
2022-12-11T03:33:01.026Z,50.30
2022-12-11T03:35:38.672Z,52.05
2022-12-11T03:38:31.786Z,47.70
2022-12-11T03:41:02.128Z,48.53
2022-12-11T03:43:31.947Z,48.30
2022-12-11T03:46:00.636Z,45.75
2022-12-11T03:48:31.660Z,47.45
2022-12-11T03:51:00.445Z,48.90
2022-12-11T03:53:27.813Z,45.55
2022-12-11T03:55:58.142Z,46.65
2022-12-11T03:58:24.835Z,47.58
2022-12-11T04:00:51.449Z,46.38
2022-12-11T04:03:18.067Z,50.03
2022-12-11T04:05:50.546Z,49.17
2022-12-11T04:08:20.627Z,43.83
2022-12-11T04:10:48.303Z,47.05
2022-12-11T04:13:15.212Z,48.25
2022-12-11T04:15:41.942Z,49.78
2022-12-11T04:18:28.665Z,45.55
2022-12-11T04:21:14.988Z,45.35
2022-12-11T04:24:00.332Z,47.28
2022-12-11T04:26:27.528Z,50.42
2022-12-11T04:28:54.264Z,50.25
2022-12-11T04:31:22.204Z,50.38
2022-12-11T04:33:49.375Z,50.88
2022-12-11T04:36:16.054Z,50.58
2022-12-11T04:38:42.693Z,53.50
2022-12-11T04:41:11.983Z,54.53
2022-12-11T04:43:38.853Z,48.58
2022-12-11T04:46:14.432Z,52.17
2022-12-11T04:48:41.888Z,51.60
2022-12-11T04:51:09.525Z,52.35
2022-12-11T04:53:37.084Z,52.47
2022-12-11T04:56:08.961Z,53.10
2022-12-11T04:58:36.460Z,53.08
2022-12-11T05:01:17.499Z,52.88
2022-12-11T05:03:44.375Z,53.70
2022-12-11T05:06:11.375Z,54.05
2022-12-11T05:08:40.077Z,52.92
2022-12-11T05:11:10.403Z,51.47
2022-12-11T05:13:37.676Z,55.08
2022-12-11T05:16:05.993Z,59.50
2022-12-11T05:18:32.788Z,59.65
2022-12-11T05:21:02.040Z,59.00
2022-12-11T05:23:29.386Z,59.25
2022-12-11T05:25:59.102Z,59.70
2022-12-11T05:28:28.197Z,57.50
2022-12-11T05:30:56.645Z,54.70
2022-12-11T05:33:23.611Z,56.13
2022-12-11T05:35:50.363Z,58.25
2022-12-11T05:38:17.299Z,56.85
2022-12-11T05:40:43.931Z,60.63
2022-12-11T05:43:10.547Z,55.67
2022-12-11T05:45:37.568Z,57.95
2022-12-11T05:48:04.315Z,53.80
2022-12-11T05:50:30.973Z,59.45
2022-12-11T05:52:57.747Z,57.17
2022-12-11T05:55:24.334Z,54.90
2022-12-11T05:57:50.909Z,58.25
2022-12-11T06:00:17.511Z,57.90
2022-12-11T06:02:44.181Z,54.47
2022-12-11T06:05:11.226Z,54.78
2022-12-11T06:07:37.936Z,61.03
2022-12-11T06:10:04.927Z,51.92
2022-12-11T06:12:32.045Z,49.58
2022-12-11T06:14:58.644Z,51.42
2022-12-11T06:17:25.240Z,53.50
2022-12-11T06:19:51.825Z,52.78
2022-12-11T06:22:18.400Z,52.65
2022-12-11T06:24:45.004Z,51.40
2022-12-11T06:27:11.595Z,54.10
2022-12-11T06:29:38.184Z,54.08
2022-12-11T06:32:05.060Z,52.42
2022-12-11T06:34:31.869Z,54.35
2022-12-11T06:36:58.663Z,52.70
2022-12-11T06:39:25.254Z,52.53
2022-12-11T06:41:51.854Z,54.90
2022-12-11T06:44:18.431Z,55.22
2022-12-11T06:46:45.037Z,55.45
2022-12-11T06:49:11.599Z,52.92
2022-12-11T06:51:38.244Z,51.75
2022-12-11T06:54:04.907Z,56.45
2022-12-11T06:56:34.212Z,53.75
2022-12-11T06:59:06.969Z,55.13
2022-12-11T07:01:34.045Z,53.05
2022-12-11T07:04:00.711Z,54.92
2022-12-11T07:06:29.789Z,51.75
2022-12-11T07:08:56.564Z,55.50
2022-12-11T07:11:23.473Z,61.38
2022-12-11T07:13:50.915Z,61.90
2022-12-11T07:16:18.081Z,59.78
2022-12-11T07:18:48.532Z,60.28
2022-12-11T07:21:15.455Z,55.22
2022-12-11T07:23:42.615Z,58.22
2022-12-11T07:26:16.485Z,57.17
2022-12-11T07:28:43.789Z,56.73
2022-12-11T07:31:13.551Z,54.80
2022-12-11T07:33:40.420Z,59.38
2022-12-11T07:36:09.226Z,58.72
2022-12-11T07:38:36.541Z,60.90
2022-12-11T07:41:10.337Z,61.13
2022-12-11T07:43:37.136Z,60.27
2022-12-11T07:46:06.139Z,68.53
2022-12-11T07:48:35.556Z,65.57
2022-12-11T07:51:17.120Z,64.43
2022-12-11T07:53:49.878Z,60.63
2022-12-11T07:56:17.870Z,62.53
2022-12-11T07:58:45.120Z,60.15
2022-12-11T08:01:20.506Z,64.15
2022-12-11T08:03:47.723Z,65.00
2022-12-11T08:06:14.537Z,63.92
2022-12-11T08:08:41.932Z,63.28
2022-12-11T08:11:12.122Z,60.25
2022-12-11T08:13:39.441Z,63.22
2022-12-11T08:16:08.982Z,52.67
2022-12-11T08:18:36.713Z,61.30
2022-12-11T08:21:12.091Z,55.35
2022-12-11T08:23:38.899Z,57.85
2022-12-11T08:26:07.785Z,54.15
2022-12-11T08:28:34.905Z,54.53
2022-12-11T08:31:08.270Z,51.63
2022-12-11T08:33:36.329Z,48.00
2022-12-11T08:36:08.272Z,49.42
2022-12-11T08:38:35.837Z,51.28
2022-12-11T08:41:13.637Z,49.42
2022-12-11T08:43:41.002Z,50.05
2022-12-11T08:46:08.597Z,52.53
2022-12-11T08:48:36.597Z,57.45
2022-12-11T08:51:07.868Z,50.10
2022-12-11T08:53:34.714Z,50.42
2022-12-11T08:56:07.479Z,47.60
2022-12-11T08:58:34.471Z,52.30
2022-12-11T09:01:09.921Z,50.38
2022-12-11T09:03:37.785Z,49.63
2022-12-11T09:06:09.587Z,49.00
2022-12-11T09:08:36.824Z,45.42
2022-12-11T09:11:12.255Z,47.72
2022-12-11T09:13:39.756Z,47.78
2022-12-11T09:16:13.039Z,44.50
2022-12-11T09:18:40.063Z,48.00
2022-12-11T09:21:09.337Z,50.20
2022-12-11T09:23:36.437Z,49.67
2022-12-11T09:26:07.716Z,48.75
2022-12-11T09:28:34.733Z,44.47
2022-12-11T09:31:01.513Z,46.65
2022-12-11T09:33:28.146Z,46.38
2022-12-11T09:36:02.608Z,46.83
2022-12-11T09:38:30.090Z,48.63
2022-12-11T09:40:56.850Z,45.95
2022-12-11T09:43:39.516Z,52.38
2022-12-11T09:46:11.784Z,54.17
2022-12-11T09:48:39.798Z,45.53
2022-12-11T09:51:33.684Z,45.88
2022-12-11T09:54:03.477Z,44.08
2022-12-11T09:56:41.862Z,51.15
2022-12-11T09:59:22.816Z,51.88
2022-12-11T10:02:03.201Z,53.33
2022-12-11T10:04:35.808Z,52.65
2022-12-11T10:07:13.278Z,52.00
2022-12-11T10:09:48.646Z,48.08
2022-12-11T10:12:26.968Z,48.83
2022-12-11T10:14:59.312Z,49.08
2022-12-11T10:17:30.713Z,49.17
2022-12-11T10:20:06.989Z,46.80
2022-12-11T10:22:34.719Z,50.47
2022-12-11T10:25:13.840Z,48.00
2022-12-11T10:27:41.588Z,49.63
2022-12-11T10:30:19.731Z,45.95
2022-12-11T10:32:54.278Z,48.33
2022-12-11T10:35:33.316Z,46.13
2022-12-11T10:38:32.406Z,45.20
2022-12-11T10:41:02.442Z,47.83
2022-12-11T10:43:33.354Z,49.08
2022-12-11T10:46:00.569Z,46.17
2022-12-11T10:48:27.381Z,45.85
2022-12-11T10:50:58.904Z,46.35
2022-12-11T10:53:26.638Z,49.10
2022-12-11T10:55:54.009Z,49.13
2022-12-11T10:58:23.997Z,50.03
2022-12-11T11:01:16.090Z,47.60
2022-12-11T11:04:04.692Z,49.70
2022-12-11T11:06:31.366Z,48.63
2022-12-11T11:09:00.559Z,48.33
2022-12-11T11:11:39.463Z,50.20
2022-12-11T11:14:13.658Z,50.53
2022-12-11T11:16:42.495Z,52.80
2022-12-11T11:19:26.341Z,57.17
2022-12-11T11:22:00.474Z,57.70
2022-12-11T11:24:34.685Z,59.42
2022-12-11T11:27:13.329Z,56.55
2022-12-11T11:29:41.349Z,55.83
2022-12-11T11:32:19.885Z,57.50
2022-12-11T11:34:46.544Z,57.13
2022-12-11T11:37:25.107Z,55.20
2022-12-11T11:39:57.979Z,55.72
2022-12-11T11:42:37.779Z,54.75
2022-12-11T11:45:16.677Z,55.05
2022-12-11T11:48:09.435Z,53.00
2022-12-11T11:50:44.668Z,53.53
2022-12-11T11:53:31.050Z,53.70
2022-12-11T11:56:16.579Z,51.28
2022-12-11T11:59:13.927Z,54.10
2022-12-11T12:01:43.783Z,49.78
2022-12-11T12:04:11.926Z,53.60
2022-12-11T12:07:04.845Z,52.63
2022-12-11T12:09:53.407Z,51.35
2022-12-11T12:12:38.726Z,47.85
2022-12-11T12:17:56.380Z,48.08
2022-12-11T12:20:32.096Z,48.72
2022-12-11T12:23:25.766Z,52.33
2022-12-11T12:26:11.323Z,51.65
2022-12-11T12:28:57.213Z,51.70
2022-12-11T12:31:23.990Z,46.40
2022-12-11T12:34:16.325Z,46.50
2022-12-11T12:37:11.206Z,44.58
2022-12-11T12:40:17.165Z,48.55
2022-12-11T12:45:53.812Z,45.88
2022-12-11T12:48:22.533Z,48.85
2022-12-11T12:50:50.981Z,45.58
2022-12-11T12:53:24.679Z,48.08
2022-12-11T12:55:52.892Z,47.80
2022-12-11T12:58:24.877Z,49.17
2022-12-11T13:00:52.015Z,50.50
2022-12-11T13:03:22.020Z,50.63
2022-12-11T13:06:10.188Z,45.17
2022-12-11T13:08:47.308Z,47.83
2022-12-11T13:11:17.290Z,46.92
2022-12-11T13:14:00.785Z,44.40
2022-12-11T13:16:41.144Z,44.08
2022-12-11T13:19:23.292Z,42.13
2022-12-11T13:22:03.891Z,41.83
2022-12-11T13:24:33.232Z,40.95
2022-12-11T13:27:25.442Z,43.88
2022-12-11T13:29:52.643Z,37.67
2022-12-11T13:32:23.657Z,38.38
2022-12-11T13:34:57.195Z,34.85
2022-12-11T13:37:34.796Z,40.55
2022-12-11T13:40:06.430Z,40.05
2022-12-11T13:42:51.972Z,40.10
2022-12-11T13:45:44.488Z,38.63
2022-12-11T13:48:34.334Z,37.92
2022-12-11T13:51:02.645Z,39.92
2022-12-11T13:53:29.403Z,39.15
2022-12-11T13:56:00.334Z,37.83
2022-12-11T13:58:28.154Z,38.78
2022-12-11T14:01:10.773Z,37.13
2022-12-11T14:03:46.741Z,38.42
2022-12-11T14:06:18.540Z,40.47
2022-12-11T14:08:50.156Z,38.75
2022-12-11T14:11:23.650Z,38.78
2022-12-11T14:13:50.750Z,36.25
2022-12-11T14:16:26.325Z,39.97
2022-12-11T14:18:55.560Z,41.53
2022-12-11T14:21:25.314Z,44.42
2022-12-11T14:23:54.806Z,52.55
2022-12-11T14:26:24.517Z,43.05
2022-12-11T14:28:51.754Z,40.88
2022-12-11T14:31:37.428Z,40.78
2022-12-11T14:34:24.507Z,41.72
2022-12-11T14:36:51.483Z,46.78
2022-12-11T14:39:30.264Z,47.38
2022-12-11T14:42:19.552Z,44.55
2022-12-11T14:45:00.183Z,43.38
2022-12-11T14:47:37.462Z,49.65
2022-12-11T14:50:06.405Z,46.65
2022-12-11T14:52:44.467Z,49.25
2022-12-11T14:55:32.570Z,50.63
2022-12-11T14:58:22.271Z,53.20
2022-12-11T15:01:00.313Z,50.15
2022-12-11T15:03:35.660Z,46.33
2022-12-11T15:06:20.776Z,55.00
2022-12-11T15:08:47.454Z,48.38
2022-12-11T15:11:16.467Z,54.17
2022-12-11T15:13:55.439Z,54.40
2022-12-11T15:16:24.375Z,48.70
2022-12-11T15:18:54.131Z,49.03
2022-12-11T15:21:32.513Z,45.90
2022-12-11T15:24:01.401Z,50.13
2022-12-11T15:26:39.672Z,46.60
2022-12-11T15:29:26.777Z,46.40
2022-12-11T15:32:18.397Z,46.42
2022-12-11T15:34:48.030Z,48.28
2022-12-11T15:37:22.672Z,50.60
2022-12-11T15:39:50.034Z,49.83
2022-12-11T15:42:28.762Z,47.67
2022-12-11T15:44:56.125Z,45.60
2022-12-11T15:47:28.883Z,45.83
2022-12-11T15:50:17.606Z,48.17
2022-12-11T15:52:45.015Z,51.47
2022-12-11T15:55:12.223Z,52.03
2022-12-11T15:57:42.982Z,48.00
2022-12-11T16:00:14.320Z,45.85
2022-12-11T16:02:40.979Z,49.40
2022-12-11T16:05:08.545Z,45.20
2022-12-11T16:07:35.631Z,45.25
2022-12-11T16:10:02.508Z,49.03
2022-12-11T16:12:29.345Z,48.42
2022-12-11T16:14:56.075Z,49.45
2022-12-11T16:17:22.699Z,43.03
2022-12-11T16:19:49.370Z,39.92
2022-12-11T16:22:16.147Z,44.55
2022-12-11T16:24:42.895Z,45.78
2022-12-11T16:27:09.761Z,47.75
2022-12-11T16:29:37.617Z,48.78
2022-12-11T16:32:06.910Z,46.33
2022-12-11T16:34:34.087Z,43.88
2022-12-11T16:37:01.268Z,45.90
2022-12-11T16:39:28.035Z,46.40
2022-12-11T16:41:55.066Z,47.92
2022-12-11T16:44:24.266Z,46.67
2022-12-11T16:46:51.961Z,44.55
2022-12-11T16:49:19.125Z,43.08
2022-12-11T16:51:45.928Z,41.25
2022-12-11T16:54:12.783Z,41.10
2022-12-11T16:56:39.432Z,39.00
2022-12-11T16:59:06.636Z,40.53
2022-12-11T17:01:34.347Z,38.75
2022-12-11T17:04:01.287Z,37.92
2022-12-11T17:06:28.367Z,39.47
2022-12-11T17:08:55.245Z,44.42
2022-12-11T17:11:24.802Z,40.45
2022-12-11T17:13:56.398Z,43.63
2022-12-11T17:16:25.953Z,41.20
2022-12-11T17:18:53.504Z,40.55
2022-12-11T17:21:22.063Z,40.17
2022-12-11T17:23:50.379Z,38.45
2022-12-11T17:26:18.289Z,39.28
2022-12-11T17:28:45.643Z,42.42
2022-12-11T17:31:17.908Z,39.53
2022-12-11T17:33:45.905Z,43.30
2022-12-11T17:36:15.039Z,45.38
2022-12-11T17:38:41.961Z,46.53
2022-12-11T17:41:13.134Z,47.92
2022-12-11T17:43:43.579Z,46.35
2022-12-11T17:46:13.527Z,54.95
2022-12-11T17:48:40.578Z,46.75
2022-12-11T17:51:09.423Z,43.88
2022-12-11T17:53:36.779Z,46.25
2022-12-11T17:56:05.932Z,50.22
2022-12-11T17:58:32.907Z,47.50
2022-12-11T18:01:00.085Z,46.70
2022-12-11T18:03:28.120Z,46.00
2022-12-11T18:05:56.538Z,48.67
2022-12-11T18:08:26.351Z,48.05
2022-12-11T18:10:53.963Z,50.88
2022-12-11T18:13:21.851Z,53.40
2022-12-11T18:15:59.845Z,49.83
2022-12-11T18:18:26.702Z,48.53
2022-12-11T18:20:53.611Z,47.83
2022-12-11T18:23:20.344Z,50.10
2022-12-11T18:25:47.021Z,48.80
2022-12-11T18:28:13.722Z,46.67
2022-12-11T18:30:40.437Z,44.35
2022-12-11T18:33:07.144Z,42.80
2022-12-11T18:35:33.954Z,43.92
2022-12-11T18:38:00.658Z,40.20
2022-12-11T18:40:28.644Z,38.97
2022-12-11T18:42:55.486Z,39.17
2022-12-11T18:45:22.209Z,40.45
2022-12-11T18:47:51.617Z,38.55
2022-12-11T18:50:18.791Z,39.15
2022-12-11T18:52:45.505Z,39.63
2022-12-11T18:55:12.488Z,37.80
2022-12-11T18:57:39.569Z,37.53
2022-12-11T19:00:07.603Z,39.30
2022-12-11T19:02:35.364Z,40.42
2022-12-11T19:05:02.811Z,36.95
2022-12-11T19:07:29.690Z,38.63
2022-12-11T19:09:56.424Z,42.63
2022-12-11T19:12:23.143Z,49.35
2022-12-11T19:14:49.833Z,41.65
2022-12-11T19:17:16.538Z,77.60
2022-12-11T19:19:45.993Z,52.28
2022-12-11T19:22:13.118Z,49.28
2022-12-11T19:24:40.547Z,54.10
2022-12-11T19:27:13.227Z,50.40
2022-12-11T19:29:40.495Z,49.00
2022-12-11T19:32:07.383Z,44.28
2022-12-11T19:34:34.018Z,49.25
2022-12-11T19:37:00.654Z,44.60
2022-12-11T19:39:28.128Z,43.97
2022-12-11T19:41:54.927Z,40.03
2022-12-11T19:44:21.642Z,41.03
2022-12-11T19:46:48.485Z,42.28
2022-12-11T19:49:15.315Z,40.20
2022-12-11T19:51:43.186Z,43.83
2022-12-11T19:54:13.477Z,53.42
2022-12-11T19:56:41.056Z,85.90
2022-12-11T19:59:11.498Z,50.63
2022-12-11T20:01:38.571Z,48.33
2022-12-11T20:04:08.067Z,45.83
2022-12-11T20:06:36.750Z,42.22
2022-12-11T20:09:05.086Z,44.35
2022-12-11T20:11:32.956Z,47.78
2022-12-11T20:13:59.933Z,43.40
2022-12-11T20:16:46.309Z,50.80
2022-12-11T20:19:13.942Z,69.55
2022-12-11T20:21:41.087Z,59.35
2022-12-11T20:24:08.830Z,57.13
2022-12-11T20:26:38.034Z,57.90
2022-12-11T20:29:07.716Z,52.60
2022-12-11T20:31:36.460Z,49.97
2022-12-11T20:34:04.471Z,55.17
2022-12-11T20:36:31.288Z,57.00
2022-12-11T20:38:58.023Z,57.30
2022-12-11T20:41:25.567Z,52.33
2022-12-11T20:43:54.010Z,49.72
2022-12-11T20:46:22.793Z,49.35
2022-12-11T20:48:50.608Z,47.80
2022-12-11T20:51:25.273Z,48.92
2022-12-11T20:53:58.252Z,51.65
2022-12-11T20:56:28.037Z,47.38
2022-12-11T20:58:55.962Z,50.30
2022-12-11T21:01:24.707Z,47.28
2022-12-11T21:03:52.894Z,47.58
2022-12-11T21:06:32.230Z,47.35
2022-12-11T21:09:04.818Z,43.50
2022-12-11T21:11:31.563Z,43.97
2022-12-11T21:13:59.026Z,46.85
2022-12-11T21:16:26.148Z,44.17
2022-12-11T21:18:54.366Z,45.20
2022-12-11T21:21:21.322Z,44.63
2022-12-11T21:23:47.989Z,43.92
2022-12-11T21:26:15.301Z,43.05
2022-12-11T21:28:42.256Z,42.78
2022-12-11T21:31:11.789Z,41.40
2022-12-11T21:33:38.883Z,41.70
2022-12-11T21:36:07.031Z,40.67
2022-12-11T21:38:33.757Z,41.05
2022-12-11T21:41:13.526Z,42.95
2022-12-11T21:44:14.265Z,40.53
2022-12-11T21:46:28.729Z,41.35
2022-12-11T21:48:55.928Z,43.00
2022-12-11T21:51:34.296Z,41.20
2022-12-11T21:54:05.858Z,41.80
2022-12-11T21:56:32.674Z,45.88
2022-12-11T21:59:01.195Z,46.65
2022-12-11T22:01:31.285Z,46.72
2022-12-11T22:03:59.606Z,46.00
2022-12-11T22:06:26.834Z,47.40
2022-12-11T22:08:53.693Z,48.13
2022-12-11T22:11:23.648Z,45.92
2022-12-11T22:13:50.767Z,52.28
2022-12-11T22:16:18.310Z,51.30
2022-12-11T22:18:45.780Z,49.83
2022-12-11T22:21:12.484Z,49.92
2022-12-11T22:23:39.928Z,50.53
2022-12-11T22:26:07.924Z,51.85
2022-12-11T22:28:35.050Z,47.67
2022-12-11T22:31:01.728Z,50.38
2022-12-11T22:33:28.493Z,51.35
2022-12-11T22:35:59.639Z,50.08
2022-12-11T22:38:26.672Z,49.72
2022-12-11T22:40:54.957Z,48.90
2022-12-11T22:43:22.010Z,49.83
2022-12-11T22:45:49.131Z,52.53
2022-12-11T22:48:15.818Z,50.03
2022-12-11T22:50:43.319Z,51.33
2022-12-11T22:53:10.440Z,46.75
2022-12-11T22:55:40.409Z,47.80
2022-12-11T22:58:07.236Z,45.35
2022-12-11T23:00:33.907Z,45.00
2022-12-11T23:03:01.764Z,44.15
2022-12-11T23:05:29.147Z,43.88
2022-12-11T23:07:56.101Z,42.92
2022-12-11T23:10:22.867Z,43.90
2022-12-11T23:12:49.704Z,42.63
2022-12-11T23:15:16.942Z,44.85
2022-12-11T23:17:43.693Z,43.22
2022-12-11T23:20:10.855Z,44.47
2022-12-11T23:22:37.544Z,42.58
2022-12-11T23:25:04.580Z,44.00
2022-12-11T23:27:31.327Z,42.70
2022-12-11T23:29:58.132Z,41.47
2022-12-11T23:32:24.848Z,43.10
2022-12-11T23:34:51.678Z,43.85
2022-12-11T23:37:18.367Z,45.20
2022-12-11T23:39:45.059Z,44.95
2022-12-11T23:42:11.810Z,46.38
2022-12-11T23:44:38.483Z,45.15
2022-12-11T23:47:05.243Z,46.78
2022-12-11T23:49:31.990Z,46.40
2022-12-11T23:51:58.635Z,46.97
2022-12-11T23:54:25.304Z,48.40
2022-12-11T23:56:51.986Z,47.72
2022-12-11T23:59:18.606Z,47.35
